createdAt,value
2022-11-19T00:02:32.147Z,83.50
2022-11-19T00:05:11.862Z,83.20
2022-11-19T00:07:54.140Z,83.40
2022-11-19T00:11:09.691Z,82.90
2022-11-19T00:13:58.216Z,83.20
2022-11-19T00:16:40.829Z,83.80
2022-11-19T00:20:08.217Z,83.80
2022-11-19T00:22:48.515Z,83.50
2022-11-19T00:25:42.774Z,83.70
2022-11-19T00:28:40.461Z,83.60
2022-11-19T00:31:18.312Z,84.10
2022-11-19T00:34:31.175Z,83.90
2022-11-19T00:37:09.936Z,84.70
2022-11-19T00:44:01.308Z,85.80
2022-11-19T00:46:41.547Z,85.60
2022-11-19T00:49:28.996Z,85.60
2022-11-19T00:52:40.825Z,84.60
2022-11-19T00:55:43.965Z,84.10
2022-11-19T00:58:47.804Z,84.40
2022-11-19T01:09:19.039Z,85.60
2022-11-19T01:12:12.112Z,85.30
2022-11-19T01:14:53.266Z,84.20
2022-11-19T01:20:54.284Z,83.20
2022-11-19T01:23:46.626Z,83.90
2022-11-19T01:26:45.747Z,84.40
2022-11-19T01:29:53.613Z,84.10
2022-11-19T01:33:04.855Z,83.50
2022-11-19T01:35:58.290Z,83.80
2022-11-19T01:42:42.898Z,82.90
2022-11-19T01:45:33.757Z,82.70
2022-11-19T01:48:42.220Z,83.20
2022-11-19T01:51:33.906Z,82.20
2022-11-19T01:54:30.468Z,82.30
2022-11-19T02:00:18.002Z,82.90
2022-11-19T02:02:55.691Z,83.80
2022-11-19T02:06:12.593Z,83.20
2022-11-19T02:09:00.287Z,83.30
2022-11-19T02:11:42.790Z,84.60
2022-11-19T02:14:27.192Z,84.30
2022-11-19T02:17:21.836Z,84.90
2022-11-19T02:20:49.432Z,84.10
2022-11-19T02:24:36.393Z,84.40
2022-11-19T02:27:24.746Z,85.00
2022-11-19T02:30:27.427Z,85.20
2022-11-19T02:33:16.819Z,85.70
2022-11-19T02:36:09.083Z,85.90
2022-11-19T02:38:54.928Z,85.80
2022-11-19T02:41:39.957Z,85.80
2022-11-19T02:44:40.857Z,84.90
2022-11-19T02:47:21.489Z,84.00
2022-11-19T02:49:58.488Z,84.80
2022-11-19T02:52:28.724Z,83.40
2022-11-19T02:55:02.753Z,84.10
2022-11-19T02:57:33.757Z,84.30
2022-11-19T03:00:20.768Z,83.90
2022-11-19T03:03:08.602Z,83.80
2022-11-19T03:05:45.253Z,85.40
2022-11-19T03:08:19.776Z,85.80
2022-11-19T03:11:07.201Z,86.20
2022-11-19T03:14:00.640Z,86.40
2022-11-19T03:16:48.758Z,87.20
2022-11-19T03:19:34.228Z,86.30
2022-11-19T03:22:13.077Z,87.00
2022-11-19T03:25:02.878Z,87.10
2022-11-19T03:27:41.843Z,86.40
2022-11-19T03:30:11.551Z,85.90
2022-11-19T03:32:56.088Z,86.50
2022-11-19T03:35:38.004Z,86.40
2022-11-19T03:38:31.121Z,85.90
2022-11-19T03:41:20.471Z,85.90
2022-11-19T03:44:04.182Z,85.90
2022-11-19T03:46:41.418Z,85.80
2022-11-19T03:49:21.445Z,86.70
2022-11-19T03:52:00.914Z,87.70
2022-11-19T03:54:39.045Z,87.50
2022-11-19T03:57:16.968Z,87.60
2022-11-19T04:00:23.009Z,86.20
2022-11-19T04:03:01.218Z,86.00
2022-11-19T04:05:46.310Z,85.90
2022-11-19T04:08:34.119Z,85.30
2022-11-19T04:13:41.169Z,86.40
2022-11-19T04:19:15.328Z,86.00
2022-11-19T04:21:50.096Z,86.10
2022-11-19T04:27:19.346Z,85.90
2022-11-19T04:29:49.887Z,86.50
2022-11-19T04:32:34.837Z,85.90
2022-11-19T04:35:11.781Z,86.70
2022-11-19T04:37:59.385Z,86.80
2022-11-19T04:40:36.788Z,87.50
2022-11-19T04:43:10.998Z,87.20
2022-11-19T04:45:46.915Z,87.00
2022-11-19T04:48:30.823Z,86.30
2022-11-19T04:51:05.190Z,86.00
2022-11-19T04:53:43.758Z,86.60
2022-11-19T04:56:24.476Z,87.60
2022-11-19T04:59:03.104Z,88.20
2022-11-19T05:01:38.046Z,88.00
2022-11-19T05:04:22.369Z,89.20
2022-11-19T05:07:01.053Z,88.80
2022-11-19T05:09:43.342Z,88.20
2022-11-19T05:12:14.030Z,87.50
2022-11-19T05:14:53.445Z,88.10
2022-11-19T05:17:26.657Z,87.00
2022-11-19T05:20:04.386Z,86.00
2022-11-19T05:22:43.633Z,86.00
2022-11-19T05:25:14.435Z,86.00
2022-11-19T05:27:47.361Z,86.10
2022-11-19T05:30:20.503Z,85.20
2022-11-19T05:35:54.829Z,85.60
2022-11-19T05:38:29.044Z,85.70
2022-11-19T05:41:22.486Z,84.50
2022-11-19T05:44:02.910Z,84.10
2022-11-19T05:46:43.559Z,84.60
2022-11-19T05:49:16.370Z,84.60
2022-11-19T05:51:58.717Z,84.30
2022-11-19T05:55:00.340Z,84.30
2022-11-19T05:57:44.621Z,84.80
2022-11-19T06:00:18.919Z,84.30
2022-11-19T06:02:52.851Z,84.80
2022-11-19T06:05:39.841Z,84.20
2022-11-19T06:08:17.187Z,84.00
2022-11-19T06:10:51.854Z,84.90
2022-11-19T06:13:39.563Z,85.50
2022-11-19T06:16:13.852Z,85.90
2022-11-19T06:18:53.402Z,85.80
2022-11-19T06:21:27.321Z,86.00
2022-11-19T06:24:14.206Z,85.90
2022-11-19T06:27:06.337Z,85.90
2022-11-19T06:29:55.949Z,86.60
2022-11-19T06:32:36.074Z,87.00
2022-11-19T06:35:22.832Z,88.60
2022-11-19T06:37:54.556Z,88.50
2022-11-19T06:40:40.720Z,87.70
2022-11-19T06:43:24.606Z,87.70
2022-11-19T06:46:01.078Z,87.60
2022-11-19T06:48:30.325Z,87.00
2022-11-19T06:51:02.670Z,87.90
2022-11-19T06:53:33.539Z,89.80
2022-11-19T06:56:26.529Z,89.20
2022-11-19T06:59:20.681Z,88.40
2022-11-19T07:02:10.133Z,88.00
2022-11-19T07:04:45.654Z,86.80
2022-11-19T07:07:28.260Z,86.00
2022-11-19T07:10:07.904Z,86.20
2022-11-19T07:12:52.834Z,86.30
2022-11-19T07:15:27.390Z,86.10
2022-11-19T07:18:34.937Z,85.90
2022-11-19T07:21:27.804Z,86.50
2022-11-19T07:24:14.381Z,86.40
2022-11-19T07:29:49.743Z,86.30
2022-11-19T07:32:38.133Z,86.00
2022-11-19T07:35:14.223Z,86.00
2022-11-19T07:38:22.486Z,86.00
2022-11-19T07:41:25.925Z,86.70
2022-11-19T07:44:11.037Z,87.10
2022-11-19T07:46:53.830Z,87.90
2022-11-19T07:49:32.296Z,87.60
2022-11-19T07:55:23.501Z,88.70
2022-11-19T07:58:11.828Z,90.00
2022-11-19T08:00:55.709Z,90.20
2022-11-19T08:03:35.423Z,90.70
2022-11-19T08:06:36.707Z,90.30
2022-11-19T08:09:06.708Z,90.10
2022-11-19T08:11:52.038Z,89.50
2022-11-19T08:14:42.397Z,88.20
2022-11-19T08:17:52.633Z,87.50
2022-11-19T08:20:37.466Z,88.20
2022-11-19T08:23:36.730Z,88.70
2022-11-19T08:29:20.058Z,90.00
2022-11-19T08:31:49.791Z,90.00
2022-11-19T08:34:19.689Z,89.80
2022-11-19T08:36:49.821Z,89.80
2022-11-19T08:39:19.653Z,89.40
2022-11-19T08:56:15.341Z,89.10
2022-11-19T08:58:50.623Z,88.20
2022-11-19T09:01:19.544Z,89.20
2022-11-19T09:03:49.158Z,88.70
2022-11-19T09:06:49.121Z,89.20
2022-11-19T09:10:27.939Z,88.60
2022-11-19T09:12:57.672Z,88.90
2022-11-19T09:15:25.765Z,89.20
2022-11-19T09:17:53.830Z,88.80
2022-11-19T09:20:22.013Z,87.70
2022-11-19T09:22:51.674Z,86.40
2022-11-19T09:25:20.473Z,86.00
2022-11-19T09:27:48.585Z,85.90
2022-11-19T09:30:18.319Z,86.20
2022-11-19T09:32:46.535Z,85.90
2022-11-19T09:35:15.090Z,85.40
2022-11-19T09:37:43.155Z,85.20
2022-11-19T09:40:12.737Z,85.90
2022-11-19T09:42:43.860Z,85.50
2022-11-19T09:45:17.824Z,84.50
2022-11-19T09:47:55.652Z,82.60
2022-11-19T09:50:26.151Z,82.60
2022-11-19T09:52:57.250Z,82.40
2022-11-19T09:55:30.689Z,83.30
2022-11-19T09:58:01.141Z,84.60
2022-11-19T10:00:31.973Z,84.30
2022-11-19T10:03:12.393Z,84.70
2022-11-19T10:05:50.418Z,86.00
2022-11-19T10:08:41.633Z,85.90
2022-11-19T10:11:29.237Z,86.00
2022-11-19T10:14:08.971Z,87.80
2022-11-19T10:17:14.918Z,88.60
2022-11-19T10:20:34.049Z,88.90
2022-11-19T10:23:11.101Z,89.00
2022-11-19T10:25:42.839Z,87.80
2022-11-19T10:28:13.889Z,87.60
2022-11-19T10:30:44.828Z,87.00
2022-11-19T10:33:19.875Z,86.80
2022-11-19T10:35:53.254Z,87.30
2022-11-19T10:38:25.391Z,86.20
2022-11-19T10:40:58.701Z,86.30
2022-11-19T10:43:31.442Z,86.10
2022-11-19T10:46:02.572Z,86.80
2022-11-19T10:48:36.881Z,86.60
2022-11-19T10:51:11.742Z,86.20
2022-11-19T10:53:49.421Z,86.20
2022-11-19T10:56:24.829Z,86.70
2022-11-19T11:08:53.307Z,89.00
2022-11-19T11:18:18.903Z,88.30
2022-11-19T11:25:37.509Z,88.80
2022-11-19T11:28:14.351Z,88.60
2022-11-19T11:30:59.941Z,89.10
2022-11-19T11:33:34.471Z,88.40
2022-11-19T11:36:07.957Z,88.20
2022-11-19T11:38:43.780Z,88.20
2022-11-19T11:46:02.860Z,87.50
2022-11-19T11:48:36.513Z,87.90
2022-11-19T11:56:10.579Z,86.70
2022-11-19T11:58:39.739Z,86.30
2022-11-19T12:14:53.872Z,86.20
2022-11-19T12:17:32.055Z,85.20
2022-11-19T12:20:20.853Z,86.30
2022-11-19T12:22:56.472Z,84.90
2022-11-19T12:25:28.113Z,84.10
2022-11-19T12:28:07.698Z,84.30
2022-11-19T12:30:41.382Z,82.50
2022-11-19T12:33:16.711Z,82.40
2022-11-19T12:35:53.028Z,81.50
2022-11-19T12:38:26.270Z,81.50
2022-11-19T12:40:58.396Z,81.60
2022-11-19T12:43:36.934Z,80.30
2022-11-19T12:46:11.497Z,80.70
2022-11-19T12:49:00.613Z,80.30
2022-11-19T12:51:34.299Z,80.80
2022-11-19T12:54:24.354Z,81.30
2022-11-19T12:57:01.418Z,80.60
2022-11-19T12:59:54.037Z,80.60
2022-11-19T13:06:43.869Z,80.50
2022-11-19T13:13:25.061Z,80.10
2022-11-19T13:16:08.124Z,79.70
2022-11-19T13:18:51.917Z,80.20
2022-11-19T13:22:14.356Z,79.50
2022-11-19T13:24:58.510Z,79.40
2022-11-19T13:27:58.632Z,79.80
2022-11-19T13:31:05.104Z,78.80
2022-11-19T14:21:14.751Z,80.70
2022-11-19T14:24:01.843Z,81.10
2022-11-19T14:26:52.418Z,81.30
2022-11-19T14:29:39.576Z,80.20
2022-11-19T14:32:20.332Z,79.90
2022-11-19T14:35:08.920Z,79.50
2022-11-19T14:37:41.402Z,80.30
2022-11-19T14:40:11.123Z,79.90
2022-11-19T14:43:13.456Z,80.60
2022-11-19T14:45:41.836Z,80.00
2022-11-19T14:48:11.369Z,79.70
2022-11-19T14:50:39.797Z,80.10
2022-11-19T14:53:18.960Z,80.20
2022-11-19T14:55:54.376Z,80.70
2022-11-19T14:58:24.244Z,80.60
2022-11-19T15:01:07.143Z,80.00
2022-11-19T15:03:37.721Z,80.10
2022-11-19T15:06:07.602Z,80.30
2022-11-19T15:08:49.583Z,79.60
2022-11-19T15:11:18.605Z,79.60
2022-11-19T15:13:47.585Z,79.70
2022-11-19T15:16:16.741Z,79.40
2022-11-19T15:19:03.669Z,79.90
2022-11-19T15:21:44.555Z,79.70
2022-11-19T15:24:21.471Z,79.80
2022-11-19T15:26:56.007Z,79.90
2022-11-19T15:29:31.875Z,80.00
2022-11-19T15:32:06.816Z,79.60
2022-11-19T15:35:04.394Z,79.60
2022-11-19T15:37:42.990Z,80.30
2022-11-19T15:40:17.977Z,80.70
2022-11-19T15:42:51.079Z,80.20
2022-11-19T15:45:21.309Z,80.60
2022-11-19T15:47:52.523Z,80.10
2022-11-19T15:50:22.371Z,79.60
2022-11-19T15:53:00.682Z,79.40
2022-11-19T15:55:31.979Z,79.50
2022-11-19T15:58:02.386Z,79.10
2022-11-19T16:00:31.106Z,79.50
2022-11-19T16:02:59.562Z,79.30
2022-11-19T16:05:32.879Z,79.90
2022-11-19T16:08:06.836Z,79.70
2022-11-19T16:10:38.151Z,80.00
2022-11-19T16:13:38.842Z,79.90
2022-11-19T16:16:32.818Z,80.30
2022-11-19T16:19:01.474Z,79.70
2022-11-19T16:25:27.993Z,79.10
2022-11-19T16:28:41.635Z,80.50
2022-11-19T16:31:10.454Z,81.00
2022-11-19T16:33:40.763Z,81.30
2022-11-19T16:36:12.912Z,81.30
2022-11-19T16:38:42.089Z,80.70
2022-11-19T16:41:29.027Z,80.80
2022-11-19T16:43:58.975Z,80.80
2022-11-19T16:46:30.073Z,80.20
2022-11-19T16:48:59.218Z,80.90
2022-11-19T16:51:32.539Z,80.30
2022-11-19T16:54:01.668Z,79.60
2022-11-19T16:56:33.770Z,79.10
2022-11-19T16:59:05.035Z,79.70
2022-11-19T17:01:33.795Z,79.90
2022-11-19T17:04:04.050Z,79.50
2022-11-19T17:06:34.896Z,79.20
2022-11-19T17:09:03.442Z,80.10
2022-11-19T17:12:07.054Z,80.10
2022-11-19T17:14:51.279Z,80.50
2022-11-19T17:17:27.918Z,79.90
2022-11-19T17:19:57.720Z,78.90
2022-11-19T17:22:28.436Z,80.10
2022-11-19T17:24:56.893Z,80.40
2022-11-19T17:27:27.082Z,80.50
2022-11-19T17:29:59.492Z,80.00
2022-11-19T17:32:28.177Z,80.70
2022-11-19T17:34:56.555Z,80.50
2022-11-19T17:37:25.180Z,80.10
2022-11-19T17:39:53.465Z,80.00
2022-11-19T17:42:38.093Z,79.70
2022-11-19T17:45:10.977Z,80.50
2022-11-19T17:47:39.547Z,80.40
2022-11-19T17:50:08.522Z,81.80
2022-11-19T17:52:36.949Z,81.60
2022-11-19T17:55:11.917Z,81.80
2022-11-19T17:57:42.714Z,82.70
2022-11-19T18:00:13.836Z,82.10
2022-11-19T18:02:42.472Z,82.50
2022-11-19T18:05:15.708Z,83.20
2022-11-19T18:07:44.232Z,84.10
2022-11-19T18:10:13.083Z,83.90
2022-11-19T18:12:41.618Z,84.10
2022-11-19T18:15:14.770Z,82.90
2022-11-19T18:17:45.121Z,82.60
2022-11-19T18:20:14.114Z,82.90
2022-11-19T18:22:42.351Z,82.00
2022-11-19T18:25:14.969Z,82.00
2022-11-19T18:27:43.424Z,83.00
2022-11-19T18:30:14.176Z,83.40
2022-11-19T18:32:42.961Z,83.10
2022-11-19T18:35:14.955Z,82.80
2022-11-19T18:37:43.556Z,82.40
2022-11-19T18:40:12.673Z,81.70
2022-11-19T18:43:01.833Z,81.70
2022-11-19T18:45:30.894Z,81.20
2022-11-19T18:47:59.608Z,81.10
2022-11-19T18:50:30.255Z,80.20
2022-11-19T18:52:59.096Z,80.60
2022-11-19T18:55:27.781Z,80.00
2022-11-19T18:57:56.149Z,80.00
2022-11-19T19:00:25.086Z,79.40
2022-11-19T19:02:55.064Z,79.70
2022-11-19T19:05:23.656Z,79.80
2022-11-19T19:07:55.196Z,80.00
2022-11-19T19:10:26.712Z,79.40
2022-11-19T19:31:33.598Z,78.30
2022-11-19T19:34:48.348Z,77.90
2022-11-19T19:37:16.737Z,77.20
2022-11-19T19:39:45.096Z,76.90
2022-11-19T19:42:13.620Z,77.60
2022-11-19T19:44:42.096Z,77.70
2022-11-19T19:47:12.188Z,77.20
2022-11-19T19:49:44.086Z,77.10
2022-11-19T19:52:12.612Z,77.30
2022-11-19T20:15:18.568Z,77.70
2022-11-19T20:17:47.133Z,77.30
2022-11-19T20:20:15.645Z,76.70
2022-11-19T20:22:44.171Z,77.00
2022-11-19T20:25:12.894Z,77.30
2022-11-19T20:27:41.450Z,77.80
2022-11-19T20:30:10.439Z,77.90
2022-11-19T20:32:40.232Z,78.30
2022-11-19T20:35:08.922Z,78.60
2022-11-19T20:37:37.398Z,77.40
2022-11-19T20:40:06.348Z,77.90
2022-11-19T20:42:54.662Z,77.60
2022-11-19T20:45:23.191Z,77.10
2022-11-19T20:47:53.347Z,78.10
2022-11-19T20:50:21.861Z,78.60
2022-11-19T20:52:50.346Z,77.20
2022-11-19T20:55:18.929Z,78.40
2022-11-19T20:57:47.513Z,78.00
2022-11-19T21:00:16.921Z,78.20
2022-11-19T21:02:45.371Z,78.20
2022-11-19T21:05:15.231Z,78.40
2022-11-19T21:07:43.752Z,78.30
2022-11-19T21:10:12.303Z,78.40
2022-11-19T21:13:00.834Z,77.70
2022-11-19T21:15:29.320Z,77.70
2022-11-19T21:17:57.938Z,77.30
2022-11-19T21:20:27.834Z,76.80
2022-11-19T21:22:56.299Z,76.90
2022-11-19T21:25:24.617Z,77.60
2022-11-19T21:27:54.900Z,77.60
2022-11-19T21:30:23.665Z,77.60
2022-11-19T21:32:52.216Z,77.40
2022-11-19T21:35:20.610Z,77.70
2022-11-19T21:37:50.431Z,77.00
2022-11-19T21:40:18.896Z,76.60
2022-11-19T21:42:47.457Z,76.70
2022-11-19T21:45:15.879Z,76.70
2022-11-19T21:47:44.426Z,76.10
2022-11-19T21:50:12.910Z,76.60
2022-11-19T21:52:41.543Z,77.40
2022-11-19T21:55:11.806Z,77.50
2022-11-19T21:57:40.192Z,78.50
2022-11-19T22:00:09.135Z,78.40
2022-11-19T22:02:41.408Z,78.80
2022-11-19T22:05:10.247Z,80.10
2022-11-19T22:07:38.900Z,80.10
2022-11-19T22:10:08.228Z,81.00
2022-11-19T22:12:38.194Z,80.70
2022-11-19T22:15:07.428Z,80.90
2022-11-19T22:17:36.403Z,80.70
2022-11-19T22:20:05.337Z,80.30
2022-11-19T22:22:33.937Z,79.70
2022-11-19T22:25:02.316Z,78.70
2022-11-19T22:27:30.872Z,79.00
2022-11-19T22:30:04.556Z,79.00
2022-11-19T22:32:34.771Z,78.80
2022-11-19T22:35:03.078Z,79.20
2022-11-19T22:37:32.086Z,80.60
2022-11-19T22:40:00.482Z,81.00
2022-11-19T22:42:29.043Z,80.60
2022-11-19T22:44:57.506Z,80.00
2022-11-19T22:47:27.490Z,79.40
2022-11-19T22:49:55.958Z,79.20
2022-11-19T22:52:24.400Z,79.00
2022-11-19T22:54:52.973Z,78.80
2022-11-19T22:57:21.419Z,78.90
2022-11-19T22:59:49.861Z,78.50
2022-11-19T23:02:18.289Z,78.70
2022-11-19T23:04:48.105Z,78.80
2022-11-19T23:07:16.903Z,78.60
2022-11-19T23:09:45.537Z,78.40
2022-11-19T23:12:31.311Z,79.60
2022-11-19T23:15:00.156Z,79.80
2022-11-19T23:17:28.961Z,79.60
2022-11-19T23:20:04.258Z,79.30
2022-11-19T23:22:32.991Z,80.00
2022-11-19T23:25:01.420Z,80.00
2022-11-19T23:27:29.910Z,79.50
2022-11-19T23:29:58.335Z,79.30
2022-11-19T23:32:26.894Z,79.20
2022-11-19T23:34:55.366Z,78.90
2022-11-19T23:37:25.096Z,78.50
2022-11-19T23:39:53.483Z,78.50
2022-11-19T23:42:21.801Z,77.80
2022-11-19T23:44:50.250Z,78.60
2022-11-19T23:47:18.802Z,79.00
2022-11-19T23:49:47.359Z,77.80
2022-11-19T23:52:15.896Z,78.20
2022-11-19T23:54:45.994Z,78.60
2022-11-19T23:57:14.698Z,78.70
2022-11-19T23:59:44.051Z,78.20
